createdAt,value
2018-11-29T00:00:06.301Z,1.77
2018-11-29T00:02:40.303Z,1.87
2018-11-29T00:05:14.118Z,1.55
2018-11-29T00:07:47.906Z,2.40
2018-11-29T00:10:21.394Z,2.13
2018-11-29T00:12:54.905Z,2.00
2018-11-29T00:15:28.930Z,2.20
2018-11-29T00:18:02.414Z,2.55
2018-11-29T00:20:36.131Z,2.50
2018-11-29T00:23:09.850Z,2.40
2018-11-29T00:25:43.860Z,2.58
2018-11-29T00:28:17.919Z,2.00
2018-11-29T00:30:51.301Z,1.93
2018-11-29T00:33:24.899Z,1.70
2018-11-29T00:35:58.859Z,2.25
2018-11-29T00:38:32.135Z,1.77
2018-11-29T00:41:05.502Z,1.90
2018-11-29T00:43:39.141Z,1.80
2018-11-29T00:46:12.571Z,2.05
2018-11-29T00:48:46.215Z,1.60
2018-11-29T00:51:19.978Z,1.57
2018-11-29T00:53:53.420Z,1.40
2018-11-29T00:56:27.758Z,1.60
2018-11-29T00:59:01.420Z,1.20
2018-11-29T01:01:34.732Z,1.40
2018-11-29T01:04:08.145Z,1.30
2018-11-29T01:06:41.891Z,1.25
2018-11-29T01:09:15.898Z,1.45
2018-11-29T01:11:49.494Z,1.30
2018-11-29T01:14:23.230Z,1.30
2018-11-29T01:16:56.898Z,0.97
2018-11-29T01:19:30.903Z,1.17
2018-11-29T01:22:04.506Z,1.33
2018-11-29T01:24:38.022Z,1.20
2018-11-29T01:27:11.506Z,1.30
2018-11-29T01:29:44.898Z,1.10
2018-11-29T01:32:18.484Z,1.10
2018-11-29T01:34:52.117Z,1.00
2018-11-29T01:37:25.647Z,0.90
2018-11-29T01:39:59.166Z,1.10
2018-11-29T01:42:32.538Z,0.87
2018-11-29T01:45:05.510Z,0.90
2018-11-29T01:47:38.942Z,1.10
2018-11-29T01:50:11.934Z,0.83
2018-11-29T01:52:45.445Z,0.80
2018-11-29T01:55:18.902Z,1.10
2018-11-29T01:57:52.639Z,1.20
2018-11-29T02:00:26.238Z,1.30
2018-11-29T02:03:00.186Z,0.93
2018-11-29T02:05:33.829Z,1.22
2018-11-29T02:08:06.932Z,1.30
2018-11-29T02:10:44.069Z,1.80
2018-11-29T02:13:17.344Z,1.40
2018-11-29T02:15:50.919Z,1.80
2018-11-29T02:18:25.081Z,2.20
2018-11-29T02:20:58.968Z,1.90
2018-11-29T02:23:32.519Z,1.53
2018-11-29T02:26:06.251Z,1.80
2018-11-29T02:28:40.170Z,2.17
2018-11-29T02:31:14.044Z,2.60
2018-11-29T02:33:47.555Z,2.72
2018-11-29T02:36:20.971Z,2.57
2018-11-29T02:38:54.924Z,2.27
2018-11-29T02:41:28.524Z,2.37
2018-11-29T02:44:02.026Z,2.00
2018-11-29T02:46:34.975Z,2.00
2018-11-29T02:49:08.456Z,2.07
2018-11-29T02:51:41.587Z,1.90
2018-11-29T02:54:15.028Z,2.10
2018-11-29T02:56:48.923Z,1.90
2018-11-29T02:59:22.970Z,1.80
2018-11-29T03:04:27.371Z,1.50
2018-11-29T03:07:00.634Z,1.60
2018-11-29T03:09:34.358Z,1.70
2018-11-29T03:12:08.212Z,1.57
2018-11-29T03:14:41.942Z,2.30
2018-11-29T03:17:14.963Z,1.80
2018-11-29T03:19:48.150Z,1.60
2018-11-29T03:22:21.559Z,1.70
2018-11-29T03:24:55.103Z,1.50
2018-11-29T03:27:30.067Z,1.80
2018-11-29T03:30:03.866Z,1.50
2018-11-29T03:32:37.011Z,1.67
2018-11-29T03:35:12.174Z,1.70
2018-11-29T03:37:46.025Z,1.72
2018-11-29T03:40:20.480Z,1.60
2018-11-29T03:42:54.590Z,1.70
2018-11-29T03:45:28.740Z,1.53
2018-11-29T03:48:02.932Z,1.60
2018-11-29T03:50:36.944Z,1.80
2018-11-29T03:53:10.960Z,1.63
2018-11-29T03:55:44.964Z,1.50
2018-11-29T04:00:02.379Z,1.50
2018-11-29T04:02:36.000Z,1.50
2018-11-29T04:05:10.207Z,1.60
2018-11-29T04:07:43.538Z,1.30
2018-11-29T04:10:17.981Z,1.27
2018-11-29T04:12:51.999Z,1.32
2018-11-29T04:15:26.112Z,1.70
2018-11-29T04:17:59.593Z,1.50
2018-11-29T04:20:33.495Z,1.80
2018-11-29T04:23:07.359Z,1.83
2018-11-29T04:25:40.994Z,1.77
2018-11-29T04:28:14.961Z,1.83
2018-11-29T04:30:48.211Z,1.70
2018-11-29T04:33:21.491Z,1.83
2018-11-29T04:35:54.390Z,1.50
2018-11-29T04:38:27.709Z,1.60
2018-11-29T04:41:00.933Z,1.57
2018-11-29T04:43:33.910Z,2.07
2018-11-29T04:46:46.580Z,1.80
2018-11-29T04:50:46.624Z,2.10
2018-11-29T04:53:19.754Z,1.90
2018-11-29T04:56:21.962Z,2.60
2018-11-29T04:58:55.171Z,2.40
2018-11-29T05:01:28.556Z,2.33
2018-11-29T05:06:33.224Z,1.70
2018-11-29T05:09:42.014Z,1.40
2018-11-29T05:12:15.972Z,1.57
2018-11-29T05:14:48.988Z,1.40
2018-11-29T05:17:22.983Z,1.80
2018-11-29T05:19:56.244Z,1.90
2018-11-29T05:22:29.528Z,2.10
2018-11-29T05:25:02.540Z,1.90
2018-11-29T05:27:35.983Z,1.83
2018-11-29T05:30:15.009Z,2.00
2018-11-29T05:32:48.571Z,1.87
2018-11-29T05:35:22.371Z,2.00
2018-11-29T05:37:56.137Z,1.80
2018-11-29T05:40:29.057Z,1.63
2018-11-29T05:43:02.481Z,1.62
2018-11-29T05:45:36.014Z,1.70
2018-11-29T05:48:09.866Z,1.67
2018-11-29T05:50:43.058Z,1.53
2018-11-29T05:53:16.508Z,1.80
2018-11-29T05:55:50.420Z,1.30
2018-11-29T05:58:23.992Z,1.30
2018-11-29T06:00:58.426Z,1.30
2018-11-29T06:03:32.074Z,1.40
2018-11-29T06:06:05.430Z,1.30
2018-11-29T06:10:25.731Z,1.00
2018-11-29T06:12:59.413Z,1.40
2018-11-29T06:15:33.006Z,1.17
2018-11-29T06:18:07.043Z,1.10
2018-11-29T06:20:40.123Z,1.20
2018-11-29T06:23:13.749Z,1.40
2018-11-29T06:25:47.024Z,1.20
2018-11-29T06:30:47.027Z,1.35
2018-11-29T06:33:20.243Z,1.40
2018-11-29T06:35:53.443Z,1.07
2018-11-29T06:38:26.629Z,1.03
2018-11-29T06:40:59.841Z,1.00
2018-11-29T06:43:33.002Z,1.03
2018-11-29T06:46:07.006Z,1.20
2018-11-29T06:48:40.912Z,1.22
2018-11-29T06:51:14.558Z,1.20
2018-11-29T06:53:52.538Z,1.43
2018-11-29T06:56:26.294Z,1.30
2018-11-29T06:58:59.612Z,1.33
2018-11-29T07:01:33.145Z,1.17
2018-11-29T07:04:07.006Z,1.30
2018-11-29T07:06:41.062Z,1.20
2018-11-29T07:09:14.611Z,0.93
2018-11-29T07:11:48.462Z,1.50
2018-11-29T07:14:21.966Z,1.67
2018-11-29T07:16:56.116Z,1.70
2018-11-29T07:19:30.197Z,1.75
2018-11-29T07:22:03.903Z,1.50
2018-11-29T07:24:37.306Z,1.53
2018-11-29T07:27:11.282Z,1.63
2018-11-29T07:29:45.018Z,1.70
2018-11-29T07:32:20.170Z,1.70
2018-11-29T07:34:54.038Z,1.50
2018-11-29T07:37:27.606Z,1.67
2018-11-29T07:40:01.038Z,1.60
2018-11-29T07:42:34.631Z,1.63
2018-11-29T07:45:09.947Z,1.80
2018-11-29T07:47:43.278Z,1.70
2018-11-29T07:50:18.052Z,1.50
2018-11-29T07:52:51.770Z,1.50
2018-11-29T07:55:26.007Z,1.30
2018-11-29T07:57:59.648Z,1.57
2018-11-29T08:00:33.623Z,1.55
2018-11-29T08:03:07.262Z,1.40
2018-11-29T08:05:41.109Z,1.30
2018-11-29T08:08:15.034Z,1.37
2018-11-29T08:10:49.074Z,1.30
2018-11-29T08:13:22.563Z,1.50
2018-11-29T08:15:56.250Z,1.20
2018-11-29T08:18:30.140Z,1.37
2018-11-29T08:21:04.297Z,1.50
2018-11-29T08:23:38.002Z,1.17
2018-11-29T08:26:12.037Z,1.27
2018-11-29T08:28:45.934Z,1.12
2018-11-29T08:31:19.567Z,1.20
2018-11-29T08:36:08.171Z,1.10
2018-11-29T08:38:41.891Z,1.20
2018-11-29T08:41:15.977Z,1.20
2018-11-29T08:43:49.470Z,1.10
2018-11-29T08:46:23.061Z,1.30
2018-11-29T08:48:56.579Z,1.00
2018-11-29T08:51:30.294Z,1.10
2018-11-29T08:54:04.295Z,0.93
2018-11-29T08:56:38.095Z,1.10
2018-11-29T08:59:12.053Z,1.15
2018-11-29T09:01:45.935Z,1.00
2018-11-29T09:04:20.019Z,1.00
2018-11-29T09:06:53.474Z,0.90
2018-11-29T09:09:27.360Z,0.90
2018-11-29T09:12:01.088Z,1.10
2018-11-29T09:14:35.074Z,0.97
2018-11-29T09:17:10.291Z,0.82
2018-11-29T09:19:43.055Z,0.90
2018-11-29T09:22:17.932Z,1.00
2018-11-29T09:24:51.304Z,0.98
2018-11-29T09:27:25.291Z,0.80
2018-11-29T09:29:59.079Z,0.90
2018-11-29T09:35:03.950Z,0.70
2018-11-29T09:37:37.487Z,0.80
2018-11-29T09:40:13.014Z,0.67
2018-11-29T09:42:46.976Z,0.60
2018-11-29T09:45:25.046Z,0.87
2018-11-29T09:47:59.310Z,0.70
2018-11-29T09:50:33.084Z,0.80
2018-11-29T09:53:06.647Z,0.70
2018-11-29T09:55:40.050Z,0.77
2018-11-29T09:58:13.595Z,0.70
2018-11-29T10:00:47.315Z,0.70
2018-11-29T10:03:21.069Z,0.60
2018-11-29T10:05:54.513Z,0.80
2018-11-29T10:08:28.322Z,0.70
2018-11-29T10:11:02.206Z,0.60
2018-11-29T10:13:35.657Z,0.70
2018-11-29T10:16:09.322Z,0.73
2018-11-29T10:18:43.074Z,0.60
2018-11-29T10:21:17.069Z,0.80
2018-11-29T10:23:51.092Z,0.70
2018-11-29T10:26:25.035Z,0.60
2018-11-29T10:28:58.494Z,0.63
2018-11-29T10:31:32.362Z,0.50
2018-11-29T10:34:06.160Z,0.53
2018-11-29T10:36:39.661Z,0.60
2018-11-29T10:39:13.334Z,0.70
2018-11-29T10:41:47.098Z,0.70
2018-11-29T10:44:20.514Z,0.50
2018-11-29T10:46:54.339Z,0.62
2018-11-29T10:49:31.136Z,0.80
2018-11-29T10:52:05.140Z,0.60
2018-11-29T10:54:38.686Z,0.80
2018-11-29T10:57:12.359Z,0.60
2018-11-29T10:59:46.339Z,0.70
2018-11-29T11:02:24.331Z,0.60
2018-11-29T11:04:58.091Z,0.65
2018-11-29T11:07:32.114Z,0.80
2018-11-29T11:10:06.121Z,0.90
2018-11-29T11:12:39.952Z,0.60
2018-11-29T11:15:13.834Z,0.80
2018-11-29T11:17:47.155Z,0.60
2018-11-29T11:20:20.534Z,0.80
2018-11-29T11:22:54.086Z,0.70
2018-11-29T11:25:27.347Z,0.80
2018-11-29T11:28:01.137Z,0.90
2018-11-29T11:30:35.094Z,0.80
2018-11-29T11:33:09.101Z,0.70
2018-11-29T11:35:43.051Z,0.72
2018-11-29T11:38:17.103Z,0.80
2018-11-29T11:43:22.541Z,0.90
2018-11-29T11:45:56.362Z,0.73
2018-11-29T11:48:30.138Z,0.97
2018-11-29T11:51:03.987Z,0.70
2018-11-29T11:53:37.751Z,1.03
2018-11-29T11:56:11.546Z,1.00
2018-11-29T11:58:45.122Z,0.90
2018-11-29T12:01:19.061Z,0.80
2018-11-29T12:03:52.534Z,1.00
2018-11-29T12:06:26.638Z,0.80
2018-11-29T12:09:00.359Z,1.00
2018-11-29T12:11:34.035Z,0.87
2018-11-29T12:14:07.345Z,1.00
2018-11-29T12:16:41.358Z,0.98
2018-11-29T12:19:15.362Z,1.00
2018-11-29T12:21:49.092Z,0.77
2018-11-29T12:24:23.115Z,1.02
2018-11-29T12:26:57.111Z,0.90
2018-11-29T12:29:31.079Z,0.90
2018-11-29T12:32:05.250Z,1.13
2018-11-29T12:34:39.116Z,1.00
2018-11-29T12:37:12.705Z,1.27
2018-11-29T12:39:46.538Z,1.00
2018-11-29T12:42:20.261Z,1.10
2018-11-29T12:44:54.150Z,1.00
2018-11-29T12:47:27.728Z,1.00
2018-11-29T12:50:01.541Z,1.10
2018-11-29T12:52:35.375Z,1.30
2018-11-29T12:55:09.760Z,0.90
2018-11-29T12:57:43.558Z,1.03
2018-11-29T13:00:22.098Z,1.30
2018-11-29T13:02:59.861Z,1.10
2018-11-29T13:05:33.374Z,1.00
2018-11-29T13:08:07.059Z,1.30
2018-11-29T13:10:41.126Z,1.10
2018-11-29T13:13:15.126Z,0.83
2018-11-29T13:15:49.155Z,0.88
2018-11-29T13:18:23.153Z,1.10
2018-11-29T13:21:05.067Z,0.90
2018-11-29T13:23:39.129Z,1.02
2018-11-29T13:26:12.848Z,1.10
2018-11-29T13:28:46.384Z,1.20
2018-11-29T13:31:20.195Z,1.10
2018-11-29T13:33:53.767Z,1.10
2018-11-29T13:36:27.664Z,1.55
2018-11-29T13:39:01.152Z,1.10
2018-11-29T13:41:34.587Z,1.17
2018-11-29T13:44:08.133Z,1.23
2018-11-29T13:46:41.670Z,1.07
2018-11-29T13:49:15.391Z,1.30
2018-11-29T13:51:49.270Z,1.30
2018-11-29T13:54:23.064Z,1.40
2018-11-29T13:56:56.771Z,1.00
2018-11-29T13:59:30.197Z,1.30
2018-11-29T14:02:04.056Z,1.30
2018-11-29T14:04:37.675Z,1.30
2018-11-29T14:07:11.394Z,1.20
2018-11-29T14:09:45.144Z,1.20
2018-11-29T14:12:19.141Z,1.32
2018-11-29T14:14:52.590Z,1.10
2018-11-29T14:17:26.610Z,1.37
2018-11-29T14:20:00.383Z,1.40
2018-11-29T14:22:34.115Z,1.20
2018-11-29T14:25:07.796Z,1.10
2018-11-29T14:27:41.574Z,1.40
2018-11-29T14:30:20.770Z,1.63
2018-11-29T14:32:54.746Z,1.30
2018-11-29T14:35:28.414Z,1.30
2018-11-29T14:38:02.406Z,1.63
2018-11-29T14:40:38.407Z,1.30
2018-11-29T14:44:44.294Z,1.12
2018-11-29T14:47:17.648Z,1.30
2018-11-29T14:49:51.416Z,1.20
2018-11-29T14:52:25.238Z,1.50
2018-11-29T14:54:59.122Z,1.50
2018-11-29T14:57:32.741Z,1.37
2018-11-29T15:00:06.442Z,1.30
2018-11-29T15:02:40.286Z,1.60
2018-11-29T15:05:15.243Z,1.37
2018-11-29T15:07:48.415Z,1.50
2018-11-29T15:10:22.381Z,1.50
2018-11-29T15:12:55.945Z,1.33
2018-11-29T15:15:30.177Z,1.43
2018-11-29T15:18:03.418Z,1.50
2018-11-29T15:20:40.318Z,1.50
2018-11-29T15:23:14.804Z,1.20
2018-11-29T15:25:48.438Z,1.40
2018-11-29T15:28:22.046Z,1.57
2018-11-29T15:30:55.705Z,1.40
2018-11-29T15:33:29.913Z,1.50
2018-11-29T15:36:03.606Z,1.60
2018-11-29T15:38:37.330Z,1.83
2018-11-29T15:41:11.196Z,1.80
2018-11-29T15:43:45.176Z,1.40
2018-11-29T15:46:18.863Z,1.47
2018-11-29T15:48:52.435Z,1.53
2018-11-29T15:51:26.169Z,2.03
2018-11-29T15:53:59.913Z,1.80
2018-11-29T15:56:33.447Z,1.60
2018-11-29T15:59:07.173Z,1.50
2018-11-29T16:01:40.611Z,1.90
2018-11-29T16:04:14.294Z,1.50
2018-11-29T16:06:47.777Z,1.70
2018-11-29T16:09:21.766Z,1.50
2018-11-29T16:11:55.945Z,1.30
2018-11-29T16:14:29.822Z,1.30
2018-11-29T16:17:03.717Z,1.50
2018-11-29T16:19:37.438Z,1.30
2018-11-29T16:22:11.142Z,1.50
2018-11-29T16:24:45.188Z,1.50
2018-11-29T16:27:19.084Z,1.30
2018-11-29T16:29:53.146Z,1.35
2018-11-29T16:34:58.281Z,1.40
2018-11-29T16:37:32.179Z,1.50
2018-11-29T16:40:05.796Z,1.30
2018-11-29T16:42:39.778Z,1.30
2018-11-29T16:45:15.214Z,1.80
2018-11-29T16:47:48.450Z,1.40
2018-11-29T16:50:22.259Z,1.50
2018-11-29T16:52:55.809Z,1.40
2018-11-29T16:55:29.454Z,1.33
2018-11-29T16:58:04.449Z,1.40
2018-11-29T17:00:38.449Z,1.52
2018-11-29T17:03:11.641Z,1.40
2018-11-29T17:05:45.218Z,1.50
2018-11-29T17:08:18.483Z,1.67
2018-11-29T17:10:52.035Z,1.90
2018-11-29T17:13:25.217Z,1.63
2018-11-29T17:15:58.796Z,1.70
2018-11-29T17:18:37.190Z,1.70
2018-11-29T17:21:10.736Z,1.67
2018-11-29T17:23:44.302Z,1.60
2018-11-29T17:26:17.242Z,1.90
2018-11-29T17:28:50.742Z,1.50
2018-11-29T17:31:24.174Z,1.40
2018-11-29T17:33:58.100Z,1.50
2018-11-29T17:36:31.743Z,1.22
2018-11-29T17:39:05.221Z,1.40
2018-11-29T17:41:38.307Z,1.40
2018-11-29T17:44:12.211Z,1.70
2018-11-29T17:46:45.693Z,1.52
2018-11-29T17:50:36.652Z,1.50
2018-11-29T17:53:10.470Z,1.42
2018-11-29T17:55:44.322Z,1.23
2018-11-29T17:58:18.926Z,1.42
2018-11-29T18:00:53.807Z,1.30
2018-11-29T18:03:27.234Z,1.37
2018-11-29T18:06:00.649Z,1.30
2018-11-29T18:08:34.116Z,1.55
2018-11-29T18:11:07.215Z,1.30
2018-11-29T18:13:42.238Z,1.30
2018-11-29T18:16:16.102Z,1.00
2018-11-29T18:18:49.760Z,1.40
2018-11-29T18:21:23.479Z,1.50
2018-11-29T18:23:57.659Z,1.30
2018-11-29T18:26:31.820Z,1.40
2018-11-29T18:29:05.282Z,1.30
2018-11-29T18:31:39.226Z,1.47
2018-11-29T18:34:13.151Z,1.27
2018-11-29T18:36:46.819Z,1.32
2018-11-29T18:39:20.466Z,1.30
2018-11-29T18:41:54.310Z,1.37
2018-11-29T18:44:28.202Z,1.30
2018-11-29T18:47:01.827Z,1.10
2018-11-29T18:49:35.765Z,1.10
2018-11-29T18:52:09.979Z,1.00
2018-11-29T18:54:43.479Z,1.40
2018-11-29T18:57:17.146Z,1.10
2018-11-29T18:59:50.810Z,1.30
2018-11-29T19:02:24.802Z,1.10
2018-11-29T19:04:58.298Z,1.00
2018-11-29T19:07:32.346Z,1.10
2018-11-29T19:10:06.298Z,1.30
2018-11-29T19:12:39.936Z,0.87
2018-11-29T19:15:17.251Z,1.03
2018-11-29T19:17:51.234Z,1.40
2018-11-29T19:20:24.494Z,1.00
2018-11-29T19:22:58.390Z,1.10
2018-11-29T19:25:32.120Z,1.00
2018-11-29T19:28:05.683Z,1.10
2018-11-29T19:30:39.886Z,0.98
2018-11-29T19:33:28.174Z,1.07
2018-11-29T19:36:02.328Z,1.20
2018-11-29T19:38:36.293Z,1.10
2018-11-29T19:41:09.694Z,1.20
2018-11-29T19:43:43.332Z,1.00
2018-11-29T19:46:17.318Z,1.05
2018-11-29T19:48:50.897Z,1.00
2018-11-29T19:51:24.837Z,1.30
2018-11-29T19:53:58.478Z,1.10
2018-11-29T19:56:32.295Z,1.20
2018-11-29T19:59:06.634Z,0.90
2018-11-29T20:01:40.691Z,1.13
2018-11-29T20:04:14.300Z,1.10
2018-11-29T20:06:48.241Z,0.83
2018-11-29T20:09:22.418Z,1.10
2018-11-29T20:11:56.266Z,1.00
2018-11-29T20:14:29.518Z,1.17
2018-11-29T20:17:03.266Z,1.20
2018-11-29T20:19:36.735Z,1.00
2018-11-29T20:22:10.516Z,1.00
2018-11-29T20:24:44.519Z,1.07
2018-11-29T20:27:18.314Z,1.00
2018-11-29T20:29:51.697Z,0.90
2018-11-29T20:32:25.194Z,1.00
2018-11-29T20:34:58.847Z,1.10
2018-11-29T20:37:32.557Z,1.00
2018-11-29T20:40:06.292Z,0.85
2018-11-29T20:42:40.621Z,1.00
2018-11-29T20:45:20.522Z,0.80
2018-11-29T20:47:54.310Z,0.97
2018-11-29T20:50:29.226Z,0.90
2018-11-29T20:53:03.431Z,0.97
2018-11-29T20:55:37.230Z,1.07
2018-11-29T20:58:11.230Z,0.83
2018-11-29T21:00:45.280Z,1.00
2018-11-29T21:03:19.377Z,0.90
2018-11-29T21:05:52.811Z,1.10
2018-11-29T21:08:26.570Z,0.90
2018-11-29T21:11:00.753Z,0.90
2018-11-29T21:13:34.370Z,0.90
2018-11-29T21:16:08.100Z,1.10
2018-11-29T21:18:41.328Z,0.90
2018-11-29T21:21:15.306Z,0.90
2018-11-29T21:23:48.763Z,0.70
2018-11-29T21:26:22.362Z,0.90
2018-11-29T21:28:55.902Z,0.80
2018-11-29T21:31:29.539Z,0.93
2018-11-29T21:34:03.300Z,1.00
2018-11-29T21:36:37.287Z,1.00
2018-11-29T21:39:12.298Z,0.80
2018-11-29T21:41:45.822Z,0.93
2018-11-29T21:44:19.562Z,0.90
2018-11-29T21:46:53.731Z,1.07
2018-11-29T21:49:27.311Z,1.10
2018-11-29T21:52:01.307Z,1.03
2018-11-29T21:54:34.723Z,1.00
2018-11-29T21:57:08.513Z,0.80
2018-11-29T21:59:42.550Z,1.07
2018-11-29T22:02:16.728Z,1.00
2018-11-29T22:04:50.420Z,0.93
2018-11-29T22:07:23.830Z,0.70
2018-11-29T22:09:57.898Z,0.90
2018-11-29T22:12:31.921Z,1.05
2018-11-29T22:15:05.807Z,0.80
2018-11-29T22:17:41.043Z,1.03
2018-11-29T22:20:14.554Z,0.70
2018-11-29T22:22:48.301Z,1.07
2018-11-29T22:25:22.209Z,0.90
2018-11-29T22:27:55.742Z,1.13
2018-11-29T22:30:29.559Z,0.85
2018-11-29T22:33:03.553Z,0.90
2018-11-29T22:35:37.366Z,1.00
2018-11-29T22:38:11.362Z,1.10
2018-11-29T22:40:45.128Z,0.93
2018-11-29T22:43:18.749Z,0.93
2018-11-29T22:46:20.399Z,1.10
2018-11-29T22:48:53.956Z,0.80
2018-11-29T22:51:27.566Z,1.00
2018-11-29T22:54:01.315Z,0.90
2018-11-29T22:56:35.310Z,0.80
2018-11-29T22:59:08.874Z,0.80
2018-11-29T23:01:42.390Z,0.83
2018-11-29T23:04:15.848Z,0.83
2018-11-29T23:06:49.363Z,0.90
2018-11-29T23:09:22.971Z,1.00
2018-11-29T23:11:56.745Z,0.88
2018-11-29T23:14:30.327Z,0.93
2018-11-29T23:17:03.920Z,0.90
2018-11-29T23:19:37.349Z,1.00
2018-11-29T23:22:11.365Z,0.85
2018-11-29T23:24:44.658Z,0.90
2018-11-29T23:27:18.335Z,1.00
2018-11-29T23:29:51.341Z,1.10
2018-11-29T23:32:24.374Z,1.20
2018-11-29T23:34:57.391Z,1.10
2018-11-29T23:37:31.232Z,1.00
2018-11-29T23:40:04.578Z,1.10
2018-11-29T23:42:37.766Z,1.10
2018-11-29T23:45:12.582Z,1.17
2018-11-29T23:47:46.291Z,1.00
2018-11-29T23:50:20.640Z,1.10
2018-11-29T23:52:54.348Z,1.10
2018-11-29T23:55:27.374Z,1.00
2018-11-29T23:58:00.782Z,1.00
